Terminal Aerodrome Forecast
Issued by NWS

Home | Current Version | Previous Version | Text Only | Print | Product List | Glossary On
Versions: 1 2 3 4 5 6 7 8 9 10 11 12
000
FTUS44 KCRP 301729
TAFLRD
TAF
KLRD 301729Z 3018/3118 14009KT P6SM SCT050
     FM310300 11015KT P6SM BKN150
     FM310800 14007KT P6SM BKN020 OVC200
     FM311500 14009KT P6SM BKN035 OVC250=

USA.gov is the U.S. government's official web portal to all federal, state and local government web resources and services.